Time;durP1;ratioP1;P1;durP2;ratioP2;P2;SDS_P1;SDS_P2;PMS_P1;PMS_P2;Temp;Humidity;BMP_temperature;BMP_pressure;BME280_temperature;BME280_humidity;BME280_pressure;Samples;Min_cycle;Max_cycle;Signal;HPM_P1;HPM_P2
2023/07/27 00:00:05;;;;;;;4.10;1.50;;;15.50;99.90;;;;;;5054001;28;20444;-70
2023/07/27 00:02:32;;;;;;;11.68;4.45;;;15.50;99.90;;;;;;5053521;28;20765;-68
2023/07/27 00:04:57;;;;;;;2.53;1.42;;;15.50;99.90;;;;;;5036404;28;20079;-69
2023/07/27 00:07:24;;;;;;;3.95;1.33;;;15.50;99.90;;;;;;5036050;28;20029;-69
2023/07/27 00:09:50;;;;;;;4.10;1.52;;;15.50;99.90;;;;;;5053827;28;20552;-70
2023/07/27 00:12:16;;;;;;;2.40;1.50;;;15.50;99.90;;;;;;5019370;28;20033;-69
2023/07/27 00:14:42;;;;;;;4.63;1.25;;;15.50;99.90;;;;;;5019137;28;20029;-72
2023/07/27 00:17:08;;;;;;;3.38;1.30;;;15.50;99.90;;;;;;5053952;28;20090;-69
2023/07/27 00:19:33;;;;;;;8.00;1.20;;;15.50;99.90;;;;;;5035831;28;20473;-70
2023/07/27 00:21:59;;;;;;;6.65;1.65;;;15.50;99.90;;;;;;5053710;28;20431;-69
2023/07/27 00:24:25;;;;;;;3.97;1.70;;;15.50;99.90;;;;;;5053222;28;20032;-69
2023/07/27 00:26:51;;;;;;;1.98;1.08;;;15.40;99.90;;;;;;5035813;28;20037;-70
2023/07/27 00:29:16;;;;;;;4.40;1.98;;;15.40;99.90;;;;;;5053526;28;20025;-70
2023/07/27 00:31:42;;;;;;;5.72;1.75;;;15.40;99.90;;;;;;5053652;28;20401;-69
2023/07/27 00:34:08;;;;;;;2.40;1.45;;;15.40;99.90;;;;;;5053163;28;20029;-70
2023/07/27 00:36:34;;;;;;;3.25;1.52;;;15.30;99.90;;;;;;5053231;28;20021;-68
2023/07/27 00:38:59;;;;;;;3.03;1.63;;;15.30;99.90;;;;;;5053360;28;20032;-69
2023/07/27 00:41:25;;;;;;;4.07;1.58;;;15.30;99.90;;;;;;5052311;28;20025;-69
2023/07/27 00:43:51;;;;;;;5.60;1.30;;;15.30;99.90;;;;;;5053036;28;20082;-69
2023/07/27 00:46:17;;;;;;;1.80;1.00;;;15.30;99.90;;;;;;5053567;28;20678;-70
2023/07/27 00:48:43;;;;;;;1.90;1.25;;;15.30;99.90;;;;;;5052946;28;20024;-70
2023/07/27 00:51:10;;;;;;;5.15;1.30;;;15.30;99.90;;;;;;5035413;28;20037;-70
2023/07/27 00:53:37;;;;;;;1.48;1.00;;;15.30;99.90;;;;;;5035156;28;20037;-70
2023/07/27 00:56:03;;;;;;;4.07;2.13;;;15.30;99.90;;;;;;5043009;28;20128;-70
2023/07/27 00:58:29;;;;;;;1.55;1.00;;;15.20;99.90;;;;;;5029700;28;20044;-69
2023/07/27 01:00:56;;;;;;;3.28;1.58;;;15.30;99.90;;;;;;5049980;28;20155;-70
2023/07/27 01:03:22;;;;;;;2.88;1.40;;;15.30;99.90;;;;;;5052196;28;20115;-69
2023/07/27 01:05:48;;;;;;;2.33;1.23;;;15.30;99.90;;;;;;5028908;28;20044;-69
2023/07/27 01:08:14;;;;;;;2.85;1.50;;;15.20;99.90;;;;;;5009211;28;20143;-69
2023/07/27 01:11:12;;;;;;;2.95;1.40;;;15.20;99.90;;;;;;5024658;28;20112;-69
2023/07/27 01:14:00;;;;;;;2.00;1.08;;;15.20;99.90;;;;;;5019005;28;20048;-70
2023/07/27 01:16:53;;;;;;;2.97;1.67;;;15.20;99.90;;;;;;5000172;28;20040;-69
2023/07/27 01:19:40;;;;;;;2.58;1.33;;;15.20;99.90;;;;;;5011438;28;20113;-71
2023/07/27 01:22:30;;;;;;;3.63;1.80;;;15.20;99.90;;;;;;4995150;28;20034;-71
2023/07/27 01:25:42;;;;;;;2.72;1.55;;;15.20;99.90;;;;;;5029484;28;20083;-70
2023/07/27 01:28:38;;;;;;;7.68;1.60;;;15.20;99.90;;;;;;5032391;28;20057;-70
2023/07/27 01:31:23;;;;;;;4.53;1.35;;;15.20;99.90;;;;;;5016865;28;20032;-70
2023/07/27 01:34:06;;;;;;;4.95;1.55;;;15.20;99.90;;;;;;5031902;28;20029;-70
2023/07/27 01:36:38;;;;;;;2.97;1.23;;;15.20;99.90;;;;;;4998995;28;20033;-70
2023/07/27 01:39:07;;;;;;;2.45;1.33;;;15.20;99.90;;;;;;5014486;28;20036;-69
2023/07/27 01:41:33;;;;;;;2.15;1.52;;;15.20;99.90;;;;;;4985788;28;20025;-70
2023/07/27 01:44:01;;;;;;;6.20;1.73;;;15.20;99.90;;;;;;5012127;28;20029;-70
2023/07/27 01:46:31;;;;;;;3.78;1.58;;;15.30;99.90;;;;;;4994760;28;20506;-70
2023/07/27 01:48:59;;;;;;;4.53;1.42;;;15.30;99.90;;;;;;4994855;28;20030;-70
2023/07/27 01:51:25;;;;;;;4.57;1.52;;;15.20;99.90;;;;;;4994980;28;20171;-70
2023/07/27 01:53:53;;;;;;;10.18;1.60;;;15.40;99.90;;;;;;4994434;28;20037;-70
2023/07/27 01:56:21;;;;;;;2.63;1.13;;;15.30;99.90;;;;;;5011907;28;20077;-70
2023/07/27 01:58:48;;;;;;;4.10;2.17;;;15.30;99.90;;;;;;4994747;28;20396;-70
2023/07/27 02:01:14;;;;;;;2.95;1.27;;;15.30;99.90;;;;;;4994723;28;20108;-70
2023/07/27 02:03:40;;;;;;;1.48;1.10;;;15.30;99.90;;;;;;4994185;28;20061;-70
2023/07/27 02:06:06;;;;;;;3.33;1.42;;;15.30;99.90;;;;;;5011878;28;20494;-70
2023/07/27 02:08:32;;;;;;;2.30;1.17;;;15.20;99.90;;;;;;5011875;28;20112;-70
2023/07/27 02:11:05;;;;;;;2.83;1.52;;;15.20;99.90;;;;;;5012004;28;20038;-70
2023/07/27 02:13:47;;;;;;;4.65;1.88;;;15.10;99.90;;;;;;4994553;28;20030;-70
2023/07/27 02:16:56;;;;;;;2.17;1.10;;;15.10;99.90;;;;;;5011719;28;20029;-70
2023/07/27 02:19:29;;;;;;;3.17;1.45;;;15.00;99.90;;;;;;5013916;28;20037;-70
2023/07/27 02:21:55;;;;;;;1.80;1.13;;;15.00;99.90;;;;;;5014094;28;20036;-69
2023/07/27 02:24:24;;;;;;;3.20;1.40;;;14.90;99.90;;;;;;5013456;28;20064;-70
2023/07/27 02:26:50;;;;;;;2.55;1.30;;;14.90;99.90;;;;;;5013866;28;20033;-70
2023/07/27 02:29:17;;;;;;;2.88;1.70;;;14.90;99.90;;;;;;5013394;28;20076;-70
2023/07/27 02:31:42;;;;;;;4.00;1.83;;;14.90;99.90;;;;;;5013420;28;20033;-70
2023/07/27 02:34:09;;;;;;;4.72;1.95;;;14.90;99.90;;;;;;5030959;28;20026;-70
2023/07/27 02:36:35;;;;;;;4.90;1.40;;;14.90;99.90;;;;;;5031187;28;20112;-70
2023/07/27 02:39:01;;;;;;;2.80;1.15;;;14.90;99.90;;;;;;5030935;28;20115;-70
2023/07/27 02:41:26;;;;;;;2.63;1.50;;;14.80;99.90;;;;;;5031153;28;20041;-70
2023/07/27 02:43:52;;;;;;;2.28;1.15;;;14.90;99.90;;;;;;5013237;28;20056;-70
2023/07/27 02:46:18;;;;;;;3.20;1.80;;;14.90;99.90;;;;;;5031171;28;20448;-70
2023/07/27 02:48:43;;;;;;;3.45;1.40;;;14.90;99.90;;;;;;5030719;28;20120;-70
2023/07/27 02:51:09;;;;;;;3.17;1.30;;;14.80;99.90;;;;;;5030960;28;20036;-70
2023/07/27 02:53:35;;;;;;;2.45;1.50;;;14.80;99.90;;;;;;5030697;28;20060;-70
2023/07/27 02:56:03;;;;;;;9.80;1.48;;;14.90;99.90;;;;;;5030938;28;20038;-70
2023/07/27 02:58:29;;;;;;;6.57;1.50;;;14.90;99.90;;;;;;5030890;28;20128;-70
2023/07/27 03:00:59;;;;;;;1.98;1.33;;;15.00;99.90;;;;;;5029939;28;20029;-70
2023/07/27 03:03:25;;;;;;;4.25;1.40;;;14.90;99.90;;;;;;5013965;28;20477;-70
2023/07/27 03:06:02;;;;;;;2.60;1.42;;;14.90;99.90;;;;;;5024537;28;20040;-70
2023/07/27 03:08:30;;;;;;;3.63;1.55;;;14.90;99.90;;;;;;5010731;28;20037;-70
2023/07/27 03:11:01;;;;;;;3.63;1.90;;;14.90;99.90;;;;;;5015984;28;20048;-70
2023/07/27 03:13:27;;;;;;;3.85;1.55;;;14.90;99.90;;;;;;5012686;28;20039;-69
2023/07/27 03:15:53;;;;;;;1.63;1.10;;;15.00;99.90;;;;;;5016168;28;20030;-70
2023/07/27 03:18:21;;;;;;;4.28;1.38;;;15.00;99.90;;;;;;5010477;28;20026;-71
2023/07/27 03:20:47;;;;;;;5.53;1.20;;;15.00;99.90;;;;;;5026362;28;20515;-70
2023/07/27 03:23:13;;;;;;;2.65;1.45;;;15.00;99.90;;;;;;5030150;28;20029;-70
2023/07/27 03:25:39;;;;;;;2.70;1.25;;;15.00;99.90;;;;;;5037432;28;20365;-70
2023/07/27 03:28:07;;;;;;;2.70;1.13;;;15.00;99.90;;;;;;5040159;28;20072;-70
2023/07/27 03:30:38;;;;;;;5.35;1.42;;;15.00;99.90;;;;;;5050516;28;20033;-70
2023/07/27 03:33:05;;;;;;;2.75;1.63;;;14.90;99.90;;;;;;5049958;28;20105;-71
2023/07/27 03:35:32;;;;;;;1.75;0.90;;;14.90;99.90;;;;;;5016205;28;20051;-71
2023/07/27 03:37:58;;;;;;;2.65;1.13;;;14.90;99.90;;;;;;5015821;28;20655;-72
2023/07/27 03:40:24;;;;;;;2.30;1.02;;;14.90;99.90;;;;;;5030330;28;20072;-70
2023/07/27 03:42:50;;;;;;;3.33;1.33;;;15.00;99.90;;;;;;5030097;28;20120;-71
2023/07/27 03:45:16;;;;;;;4.72;1.30;;;14.90;99.90;;;;;;5030278;28;20667;-70
2023/07/27 03:47:43;;;;;;;8.10;1.67;;;14.90;99.90;;;;;;5030461;28;20044;-71
2023/07/27 03:50:10;;;;;;;2.03;1.02;;;15.00;99.90;;;;;;5030061;28;20061;-71
2023/07/27 03:52:36;;;;;;;2.72;1.40;;;15.00;99.90;;;;;;5030346;28;20071;-71
2023/07/27 03:55:02;;;;;;;1.88;1.20;;;15.00;99.90;;;;;;5030042;28;20037;-71
2023/07/27 03:57:28;;;;;;;3.03;1.33;;;15.00;99.90;;;;;;5030355;28;20428;-71
2023/07/27 03:59:59;;;;;;;1.73;1.00;;;15.00;99.90;;;;;;5029904;28;20030;-71
2023/07/27 04:02:26;;;;;;;3.53;1.52;;;15.00;99.90;;;;;;5029913;28;20042;-71
2023/07/27 04:04:52;;;;;;;4.07;1.50;;;15.00;99.90;;;;;;5029880;28;20414;-71
2023/07/27 04:07:18;;;;;;;3.03;1.27;;;15.00;99.90;;;;;;5030068;28;20036;-71
2023/07/27 04:09:44;;;;;;;5.50;1.15;;;15.00;99.90;;;;;;5029845;28;20026;-71
2023/07/27 04:12:10;;;;;;;3.90;1.30;;;15.00;99.90;;;;;;5012843;28;20037;-71
2023/07/27 04:14:36;;;;;;;4.07;1.30;;;15.00;99.90;;;;;;5014153;28;20038;-70
2023/07/27 04:17:03;;;;;;;3.00;0.88;;;15.00;99.90;;;;;;5033856;28;20036;-69
2023/07/27 04:19:28;;;;;;;4.00;1.27;;;15.00;99.90;;;;;;5048567;23;20048;-78
2023/07/27 04:21:54;;;;;;;2.58;1.30;;;15.00;99.90;;;;;;5044319;28;20037;-78
2023/07/27 04:24:20;;;;;;;3.30;1.65;;;15.10;99.90;;;;;;5038732;28;20021;-78
2023/07/27 04:26:46;;;;;;;3.60;1.08;;;15.10;99.90;;;;;;5035665;28;20445;-78
2023/07/27 04:29:11;;;;;;;1.95;1.20;;;15.10;99.90;;;;;;5032682;28;20041;-78
2023/07/27 04:31:37;;;;;;;3.90;1.42;;;15.10;99.90;;;;;;5015807;28;20104;-78
2023/07/27 04:34:03;;;;;;;2.42;1.27;;;15.30;99.90;;;;;;5033045;28;20037;-78
2023/07/27 04:36:28;;;;;;;2.20;1.23;;;15.30;99.90;;;;;;4999889;28;20045;-78
2023/07/27 04:38:54;;;;;;;3.42;1.20;;;15.40;99.90;;;;;;5033127;28;20033;-78
2023/07/27 04:41:20;;;;;;;3.63;2.65;;;15.40;99.90;;;;;;5015659;28;20386;-79
2023/07/27 04:43:45;;;;;;;2.38;1.00;;;15.50;99.90;;;;;;5033223;28;20404;-79
2023/07/27 04:46:11;;;;;;;4.55;1.95;;;15.60;99.90;;;;;;5033218;28;20081;-78
2023/07/27 04:48:37;;;;;;;2.55;1.33;;;15.60;99.90;;;;;;5033069;28;20080;-73
2023/07/27 04:51:03;;;;;;;2.35;1.23;;;15.60;99.90;;;;;;5009074;28;20029;-69
2023/07/27 04:53:29;;;;;;;3.17;1.73;;;15.60;99.90;;;;;;5012396;28;20025;-69
2023/07/27 04:55:54;;;;;;;1.92;1.00;;;15.50;99.90;;;;;;5025738;28;20105;-69
2023/07/27 04:58:20;;;;;;;2.63;1.27;;;15.50;99.90;;;;;;5014757;28;20473;-69
2023/07/27 05:00:55;;;;;;;2.88;1.58;;;15.50;99.90;;;;;;5030363;28;20405;-70
2023/07/27 05:03:21;;;;;;;2.42;1.30;;;15.60;99.90;;;;;;4998513;28;20029;-70
2023/07/27 05:05:47;;;;;;;2.88;1.35;;;15.60;99.90;;;;;;5008689;28;20545;-68
2023/07/27 05:08:13;;;;;;;2.50;1.00;;;15.50;99.90;;;;;;5012338;28;20041;-69
2023/07/27 05:10:42;;;;;;;4.60;1.02;;;15.50;99.90;;;;;;4996198;28;20452;-68
2023/07/27 05:13:08;;;;;;;5.05;1.27;;;15.50;99.90;;;;;;5012421;28;20034;-69
2023/07/27 05:15:34;;;;;;;2.33;1.33;;;15.50;99.90;;;;;;5023955;28;20034;-68
2023/07/27 05:18:00;;;;;;;4.03;1.75;;;15.40;99.90;;;;;;5032321;28;20574;-69
2023/07/27 05:20:26;;;;;;;2.40;1.25;;;15.50;99.90;;;;;;5011837;28;20060;-69
2023/07/27 05:22:52;;;;;;;7.47;1.90;;;15.50;99.90;;;;;;5014354;28;20040;-68
2023/07/27 05:25:18;;;;;;;2.08;1.00;;;15.60;99.90;;;;;;5032191;28;20037;-71
2023/07/27 05:27:43;;;;;;;2.60;1.15;;;15.60;99.90;;;;;;5028491;28;20123;-69
2023/07/27 05:30:10;;;;;;;1.63;1.15;;;15.60;99.90;;;;;;5031397;28;20035;-70
2023/07/27 05:32:37;;;;;;;2.63;1.30;;;15.70;99.90;;;;;;5031380;28;20037;-69
2023/07/27 05:35:04;;;;;;;2.33;1.40;;;15.70;99.90;;;;;;5031810;28;20033;-68
2023/07/27 05:37:30;;;;;;;3.42;1.52;;;15.70;99.90;;;;;;5030620;28;20473;-68
2023/07/27 05:39:56;;;;;;;2.45;1.40;;;15.70;99.90;;;;;;5013828;28;20050;-68
2023/07/27 05:42:22;;;;;;;2.05;1.10;;;15.70;99.90;;;;;;5014000;28;20025;-68
2023/07/27 05:44:47;;;;;;;2.05;1.20;;;15.80;99.90;;;;;;5031463;28;20374;-68
2023/07/27 05:47:13;;;;;;;2.63;1.20;;;15.70;99.90;;;;;;5031822;28;20417;-68
2023/07/27 05:49:40;;;;;;;2.10;1.05;;;15.80;99.90;;;;;;5026439;28;20034;-68
2023/07/27 05:52:06;;;;;;;5.00;2.10;;;15.80;99.90;;;;;;5024815;28;20025;-68
2023/07/27 05:54:32;;;;;;;2.58;1.30;;;15.80;99.90;;;;;;5042787;28;20029;-67
2023/07/27 05:56:58;;;;;;;5.30;1.65;;;15.80;99.90;;;;;;5050980;28;20090;-68
2023/07/27 05:59:24;;;;;;;2.22;1.20;;;15.80;99.90;;;;;;5051878;28;20029;-68
2023/07/27 06:01:50;;;;;;;3.00;1.48;;;15.80;99.90;;;;;;5023470;28;20029;-67
2023/07/27 06:04:16;;;;;;;3.55;1.58;;;15.80;99.90;;;;;;5031122;28;20637;-67
2023/07/27 06:06:47;;;;;;;3.17;1.40;;;15.80;99.90;;;;;;5031528;28;20033;-67
2023/07/27 06:09:14;;;;;;;3.40;1.85;;;15.90;99.90;;;;;;5013931;28;20041;-68
2023/07/27 06:11:40;;;;;;;3.80;1.60;;;16.00;99.90;;;;;;5031166;28;20052;-68
2023/07/27 06:14:06;;;;;;;3.15;1.45;;;16.00;99.90;;;;;;5013398;28;20041;-68
2023/07/27 06:16:32;;;;;;;1.50;0.95;;;15.90;99.90;;;;;;5013413;28;20040;-69
2023/07/27 06:18:58;;;;;;;2.65;1.25;;;15.90;99.90;;;;;;5031121;28;20030;-68
2023/07/27 06:21:23;;;;;;;2.35;1.40;;;15.90;99.90;;;;;;5030800;28;20030;-64
2023/07/27 06:23:50;;;;;;;3.58;1.55;;;16.00;99.90;;;;;;5030985;28;20029;-62
2023/07/27 06:26:15;;;;;;;4.65;1.60;;;16.00;99.90;;;;;;5030801;28;20033;-63
2023/07/27 06:28:41;;;;;;;2.33;1.75;;;16.00;99.90;;;;;;5031103;28;20048;-65
2023/07/27 06:31:07;;;;;;;4.78;1.05;;;16.00;99.90;;;;;;5030981;28;20038;-64
2023/07/27 06:33:32;;;;;;;9.88;3.40;;;16.10;99.90;;;;;;5030337;28;20040;-64
2023/07/27 06:35:58;;;;;;;2.30;1.40;;;16.00;99.90;;;;;;5030525;28;20030;-64
2023/07/27 06:38:24;;;;;;;2.42;1.30;;;16.10;99.90;;;;;;5029988;28;20048;-64
2023/07/27 06:40:49;;;;;;;4.93;1.42;;;16.20;99.90;;;;;;5030685;28;20091;-65
2023/07/27 06:43:15;;;;;;;7.13;2.75;;;16.20;99.90;;;;;;5012676;28;20786;-64
2023/07/27 06:45:41;;;;;;;2.85;1.52;;;16.20;99.90;;;;;;5030734;28;20044;-63
2023/07/27 06:48:08;;;;;;;2.72;1.63;;;16.20;99.90;;;;;;5030653;28;20029;-64
2023/07/27 06:50:33;;;;;;;3.90;1.83;;;16.10;99.90;;;;;;5030186;28;20061;-62
2023/07/27 06:52:59;;;;;;;9.40;1.88;;;16.20;99.90;;;;;;5030115;28;20118;-62
2023/07/27 06:55:25;;;;;;;2.42;1.33;;;16.10;99.90;;;;;;5030503;28;20072;-63
2023/07/27 06:57:54;;;;;;;1.98;1.15;;;16.20;99.90;;;;;;5030061;28;20045;-64
2023/07/27 07:00:20;;;;;;;2.85;1.60;;;16.10;99.90;;;;;;5030563;28;20055;-62
2023/07/27 07:02:46;;;;;;;2.67;1.52;;;16.10;99.90;;;;;;5029680;28;21116;-63
2023/07/27 07:05:12;;;;;;;7.65;2.13;;;16.10;99.90;;;;;;5030124;28;20076;-63
2023/07/27 07:07:38;;;;;;;6.05;2.30;;;16.10;99.90;;;;;;5029883;28;20039;-63
2023/07/27 07:10:05;;;;;;;2.30;1.45;;;16.10;99.90;;;;;;5012537;28;20040;-63
2023/07/27 07:12:31;;;;;;;3.85;1.48;;;16.10;99.90;;;;;;5009867;28;20485;-63
2023/07/27 07:14:57;;;;;;;2.40;1.42;;;16.10;99.90;;;;;;5010274;28;20034;-62
2023/07/27 07:17:23;;;;;;;3.08;1.45;;;16.10;99.90;;;;;;5010641;28;20022;-63
2023/07/27 07:19:48;;;;;;;2.50;1.73;;;16.10;99.90;;;;;;5010298;28;20044;-63
2023/07/27 07:22:14;;;;;;;15.07;5.68;;;16.10;99.90;;;;;;5025765;28;20032;-63
2023/07/27 07:24:40;;;;;;;2.97;1.42;;;16.10;99.90;;;;;;5029571;28;20025;-63
2023/07/27 07:27:06;;;;;;;5.90;2.08;;;16.10;99.90;;;;;;5029744;28;20064;-63
2023/07/27 07:29:31;;;;;;;3.05;1.40;;;16.10;99.90;;;;;;5030163;28;20033;-64
2023/07/27 07:31:57;;;;;;;2.88;1.30;;;16.10;99.90;;;;;;5030385;28;20037;-64
2023/07/27 07:34:23;;;;;;;1.65;1.15;;;16.10;99.90;;;;;;5029585;28;20037;-63
2023/07/27 07:36:48;;;;;;;2.95;1.50;;;16.10;99.90;;;;;;5029946;28;20087;-63
2023/07/27 07:39:14;;;;;;;2.28;1.60;;;16.00;99.90;;;;;;5029803;28;20397;-63
2023/07/27 07:41:40;;;;;;;3.28;1.60;;;16.10;99.90;;;;;;5030053;28;20041;-63
2023/07/27 07:44:06;;;;;;;3.30;1.48;;;16.10;99.90;;;;;;5028894;28;20037;-64
2023/07/27 07:46:31;;;;;;;2.83;1.30;;;16.00;99.90;;;;;;5030116;28;20512;-64
2023/07/27 07:48:57;;;;;;;5.95;2.33;;;16.00;99.90;;;;;;5029107;28;20055;-63
2023/07/27 07:51:23;;;;;;;4.90;2.20;;;16.00;99.90;;;;;;5031728;28;20037;-64
2023/07/27 07:53:49;;;;;;;2.83;1.58;;;15.90;99.90;;;;;;5023794;28;20037;-63
2023/07/27 07:56:17;;;;;;;4.10;2.10;;;16.00;99.90;;;;;;5052941;28;20036;-63
2023/07/27 07:58:46;;;;;;;5.43;1.85;;;15.90;99.90;;;;;;5053844;28;20044;-63
2023/07/27 08:01:12;;;;;;;3.28;1.92;;;15.80;99.90;;;;;;5052547;28;20036;-64
2023/07/27 08:03:37;;;;;;;3.20;1.85;;;15.80;99.90;;;;;;5012660;28;20033;-63
2023/07/27 08:06:03;;;;;;;4.80;2.25;;;15.80;99.90;;;;;;5015875;28;20032;-64
2023/07/27 08:08:29;;;;;;;4.22;1.88;;;15.80;99.90;;;;;;5015690;28;20057;-64
2023/07/27 08:11:03;;;;;;;6.68;1.98;;;15.70;99.90;;;;;;5026243;28;20120;-64
2023/07/27 08:13:32;;;;;;;3.83;2.15;;;15.80;99.90;;;;;;4995370;28;20037;-64
2023/07/27 08:15:58;;;;;;;3.05;1.77;;;15.70;99.90;;;;;;5013624;28;20041;-63
2023/07/27 08:18:24;;;;;;;2.88;1.45;;;15.80;99.90;;;;;;5022313;28;20031;-64
2023/07/27 08:21:07;;;;;;;3.22;1.70;;;15.70;99.90;;;;;;5032111;28;20042;-64
2023/07/27 08:23:33;;;;;;;3.42;1.60;;;15.70;99.90;;;;;;5034622;28;20030;-63
2023/07/27 08:26:00;;;;;;;4.15;1.42;;;15.70;99.90;;;;;;5032990;28;20601;-63
2023/07/27 08:28:26;;;;;;;3.60;1.50;;;15.80;99.90;;;;;;5015287;28;20037;-63
2023/07/27 08:30:53;;;;;;;3.35;1.55;;;15.70;99.90;;;;;;5015279;28;20033;-63
2023/07/27 08:33:19;;;;;;;5.88;2.97;;;15.70;99.90;;;;;;5014401;28;20692;-63
2023/07/27 08:35:46;;;;;;;5.60;1.60;;;15.70;99.90;;;;;;5032596;28;20034;-63
2023/07/27 08:38:12;;;;;;;5.68;1.95;;;15.70;99.90;;;;;;5032830;28;20029;-63
2023/07/27 08:40:38;;;;;;;5.22;1.83;;;15.70;99.90;;;;;;5032744;28;20021;-63
2023/07/27 08:43:07;;;;;;;3.15;1.63;;;15.70;99.90;;;;;;5032244;28;20040;-63
2023/07/27 08:45:35;;;;;;;3.40;1.98;;;15.60;99.90;;;;;;5032750;28;20485;-64
2023/07/27 08:48:04;;;;;;;6.97;2.20;;;15.50;99.90;;;;;;4995723;28;20046;-62
2023/07/27 08:50:31;;;;;;;3.25;1.85;;;15.50;99.90;;;;;;5014922;28;20504;-63
2023/07/27 08:52:57;;;;;;;4.18;1.98;;;15.40;99.90;;;;;;5014669;28;20033;-63
2023/07/27 08:55:22;;;;;;;4.35;2.28;;;15.40;99.90;;;;;;5031696;28;20075;-63
2023/07/27 08:57:48;;;;;;;11.13;2.85;;;15.40;99.90;;;;;;5032410;28;20026;-64
2023/07/27 09:00:16;;;;;;;10.98;3.55;;;15.40;99.90;;;;;;5014661;28;20116;-63
2023/07/27 09:02:42;;;;;;;2.75;1.75;;;15.40;99.90;;;;;;5013006;28;20030;-63
2023/07/27 09:05:09;;;;;;;3.88;2.42;;;15.40;99.90;;;;;;5032454;28;20043;-63
2023/07/27 09:07:35;;;;;;;5.22;2.28;;;15.50;99.90;;;;;;5032483;28;20022;-63
2023/07/27 09:10:11;;;;;;;3.83;1.95;;;15.50;99.90;;;;;;5032449;28;20223;-62
2023/07/27 09:12:37;;;;;;;2.92;1.80;;;15.50;99.90;;;;;;5011843;28;20026;-62
2023/07/27 09:15:13;;;;;;;7.25;2.35;;;15.60;99.90;;;;;;5012161;28;20040;-62
2023/07/27 09:17:40;;;;;;;3.42;2.55;;;15.70;99.90;;;;;;5020669;28;20056;-62
2023/07/27 09:20:12;;;;;;;3.53;2.17;;;15.80;99.90;;;;;;5036759;28;20054;-62
2023/07/27 09:22:38;;;;;;;3.55;1.98;;;15.80;99.90;;;;;;5030509;28;20029;-63
2023/07/27 09:25:06;;;;;;;6.68;2.35;;;15.90;99.90;;;;;;5031528;28;20036;-63
2023/07/27 09:27:44;;;;;;;4.93;1.90;;;15.90;99.90;;;;;;5022663;28;20413;-64
2023/07/27 09:30:12;;;;;;;6.03;1.95;;;16.00;99.90;;;;;;5050818;28;20025;-66
2023/07/27 09:32:38;;;;;;;4.55;1.80;;;16.00;99.90;;;;;;5020488;28;20038;-63
2023/07/27 09:35:06;;;;;;;2.55;1.60;;;16.00;99.90;;;;;;5022626;28;20124;-64
2023/07/27 09:37:33;;;;;;;3.85;1.65;;;16.10;99.90;;;;;;5022698;28;20505;-64
2023/07/27 09:40:10;;;;;;;3.20;1.83;;;16.10;99.90;;;;;;5021241;28;20107;-64
2023/07/27 09:42:37;;;;;;;5.05;1.75;;;16.20;99.90;;;;;;5012690;28;20033;-63
2023/07/27 09:45:03;;;;;;;4.40;1.88;;;16.20;99.90;;;;;;5037715;28;20029;-63
2023/07/27 09:47:31;;;;;;;5.05;2.10;;;16.20;99.90;;;;;;5039794;28;20025;-63
2023/07/27 09:50:00;;;;;;;4.20;2.13;;;16.20;99.90;;;;;;5030885;28;20399;-64
2023/07/27 09:52:28;;;;;;;4.32;1.92;;;16.20;99.90;;;;;;5012250;28;20034;-63
2023/07/27 09:54:58;;;;;;;3.60;2.00;;;16.20;99.90;;;;;;4994053;28;20033;-63
2023/07/27 09:57:26;;;;;;;2.13;1.40;;;16.20;99.90;;;;;;4994354;28;20026;-63
2023/07/27 09:59:52;;;;;;;2.65;1.20;;;16.30;99.90;;;;;;4994105;28;20479;-64
2023/07/27 10:02:21;;;;;;;2.83;1.33;;;16.30;99.90;;;;;;5027906;28;20064;-65
2023/07/27 10:04:51;;;;;;;3.67;1.80;;;16.30;99.90;;;;;;5013576;28;20040;-65
2023/07/27 10:07:22;;;;;;;4.20;1.83;;;16.30;99.90;;;;;;5014109;28;20033;-65
2023/07/27 10:10:08;;;;;;;6.23;2.03;;;16.40;99.90;;;;;;5013637;28;20033;-64
2023/07/27 10:12:33;;;;;;;21.65;2.50;;;16.40;99.90;;;;;;4995584;28;20022;-64
2023/07/27 10:15:24;;;;;;;3.13;1.60;;;16.40;99.90;;;;;;5011200;28;20033;-63
2023/07/27 10:17:54;;;;;;;3.97;1.97;;;16.40;99.90;;;;;;5011651;28;20109;-64
2023/07/27 10:20:33;;;;;;;6.15;2.38;;;16.40;99.90;;;;;;5039135;23;20407;-62
2023/07/27 10:23:28;;;;;;;3.13;1.55;;;16.40;99.90;;;;;;5025599;28;20033;-63
2023/07/27 10:25:56;;;;;;;4.00;2.00;;;16.40;99.90;;;;;;5050481;28;20086;-62
2023/07/27 10:28:51;;;;;;;4.25;1.52;;;16.40;99.90;;;;;;5050493;28;20037;-62
2023/07/27 10:31:23;;;;;;;4.22;2.17;;;16.50;99.90;;;;;;5029280;28;20598;-61
2023/07/27 10:34:07;;;;;;;5.70;1.73;;;16.50;99.90;;;;;;5048341;28;20477;-64
2023/07/27 10:36:59;;;;;;;4.28;2.20;;;16.50;99.90;;;;;;5049902;28;20033;-64
2023/07/27 10:39:49;;;;;;;4.10;2.75;;;16.50;99.90;;;;;;5049199;28;20096;-64
2023/07/27 10:42:34;;;;;;;3.85;2.20;;;16.50;99.90;;;;;;5047533;28;20571;-65
2023/07/27 10:44:59;;;;;;;4.15;2.38;;;16.50;99.90;;;;;;5060318;28;20042;-64
2023/07/27 10:47:37;;;;;;;5.95;2.30;;;16.50;99.90;;;;;;5058168;28;20489;-65
2023/07/27 10:50:03;;;;;;;3.28;1.90;;;16.50;99.90;;;;;;5050688;28;20047;-64
2023/07/27 10:52:37;;;;;;;3.50;1.85;;;16.50;99.90;;;;;;5014801;28;20029;-65
2023/07/27 10:55:05;;;;;;;8.70;4.57;;;16.50;99.90;;;;;;5012585;28;20037;-64
2023/07/27 10:57:33;;;;;;;4.65;1.85;;;16.50;99.90;;;;;;5016858;28;20029;-65
2023/07/27 11:00:00;;;;;;;5.13;2.22;;;16.50;99.90;;;;;;5040968;28;20262;-65
2023/07/27 11:02:32;;;;;;;5.03;1.98;;;16.40;99.90;;;;;;5043212;28;20025;-65
2023/07/27 11:05:02;;;;;;;4.13;2.25;;;16.40;99.90;;;;;;5047098;28;20090;-65
2023/07/27 11:07:46;;;;;;;4.55;2.20;;;16.40;99.90;;;;;;5038276;28;20500;-65
2023/07/27 11:10:16;;;;;;;4.13;2.35;;;16.40;99.90;;;;;;5051183;28;20065;-64
2023/07/27 11:12:52;;;;;;;4.20;1.90;;;16.40;99.90;;;;;;5046841;28;20102;-65
2023/07/27 11:15:27;;;;;;;2.33;1.58;;;16.40;99.90;;;;;;5022431;28;20024;-64
2023/07/27 11:17:56;;;;;;;3.80;2.17;;;16.40;99.90;;;;;;5055026;28;20025;-64
2023/07/27 11:20:25;;;;;;;2.85;1.70;;;16.40;99.90;;;;;;5037945;28;20021;-64
2023/07/27 11:22:53;;;;;;;8.55;1.75;;;16.40;99.90;;;;;;5055734;28;20536;-65
2023/07/27 11:25:19;;;;;;;8.65;3.03;;;16.40;99.90;;;;;;5059843;28;20029;-64
2023/07/27 11:27:48;;;;;;;5.63;2.50;;;16.40;99.90;;;;;;5014403;28;20072;-63
2023/07/27 11:30:17;;;;;;;4.43;2.05;;;16.50;99.90;;;;;;5054797;28;20103;-63
2023/07/27 11:33:05;;;;;;;4.82;2.35;;;16.50;99.90;;;;;;5059844;28;20515;-64
2023/07/27 11:35:31;;;;;;;3.42;1.63;;;16.50;99.90;;;;;;5055804;28;20067;-63
2023/07/27 11:37:59;;;;;;;7.65;2.13;;;16.60;99.90;;;;;;5054235;28;20564;-63
2023/07/27 11:40:26;;;;;;;3.45;2.30;;;16.60;99.90;;;;;;5036610;28;20095;-65
2023/07/27 11:42:52;;;;;;;5.85;2.45;;;16.60;99.90;;;;;;5053051;28;20029;-63
2023/07/27 11:45:17;;;;;;;3.97;2.05;;;16.60;99.90;;;;;;5053833;28;20082;-64
2023/07/27 11:47:43;;;;;;;4.32;2.40;;;16.70;99.90;;;;;;5019537;28;20047;-64
2023/07/27 11:50:14;;;;;;;6.22;2.30;;;16.80;99.90;;;;;;5034196;28;20115;-63
2023/07/27 11:52:40;;;;;;;8.52;2.50;;;16.80;99.90;;;;;;5052088;28;20032;-63
2023/07/27 11:55:08;;;;;;;3.92;2.67;;;16.80;99.90;;;;;;5044929;28;20237;-64
2023/07/27 11:57:34;;;;;;;6.50;2.30;;;16.80;99.90;;;;;;5067677;28;20060;-64
2023/07/27 12:00:13;;;;;;;5.95;2.10;;;16.80;99.90;;;;;;5073490;28;20412;-64
2023/07/27 12:02:50;;;;;;;4.10;2.20;;;16.80;99.90;;;;;;5056272;28;20037;-63
2023/07/27 12:05:21;;;;;;;4.10;2.30;;;16.90;99.90;;;;;;5073390;28;20044;-63
2023/07/27 12:07:50;;;;;;;3.25;2.22;;;16.90;99.90;;;;;;5073472;28;20496;-63
2023/07/27 12:10:18;;;;;;;8.27;2.33;;;16.90;99.90;;;;;;5071427;28;20071;-67
2023/07/27 12:12:59;;;;;;;3.25;1.88;;;17.00;99.90;;;;;;5052682;28;20492;-64
2023/07/27 12:15:33;;;;;;;3.80;1.90;;;16.90;99.90;;;;;;5053099;28;20109;-64
2023/07/27 12:18:10;;;;;;;10.68;2.15;;;16.90;99.90;;;;;;5053375;28;20120;-63
2023/07/27 12:20:36;;;;;;;5.00;2.83;;;17.00;99.90;;;;;;5035402;28;20551;-63
2023/07/27 12:23:02;;;;;;;4.93;3.05;;;17.10;99.90;;;;;;5034169;28;20144;-64
2023/07/27 12:25:29;;;;;;;5.28;2.30;;;17.10;99.90;;;;;;5018831;28;20037;-64
2023/07/27 12:27:55;;;;;;;4.72;2.33;;;17.20;99.90;;;;;;5053007;28;20064;-66
2023/07/27 12:30:22;;;;;;;4.28;2.28;;;17.20;99.90;;;;;;5034935;28;20656;-65
2023/07/27 12:32:49;;;;;;;3.03;1.73;;;17.30;99.90;;;;;;5034225;28;20029;-65
2023/07/27 12:35:16;;;;;;;2.95;1.95;;;17.40;99.90;;;;;;5034846;28;20385;-64
2023/07/27 12:37:43;;;;;;;4.93;2.72;;;17.50;99.90;;;;;;5051437;28;20057;-63
2023/07/27 12:40:10;;;;;;;5.22;2.20;;;17.60;99.90;;;;;;5052158;28;20013;-64
2023/07/27 12:42:36;;;;;;;5.97;2.45;;;17.70;99.90;;;;;;5052195;28;20052;-64
2023/07/27 12:45:02;;;;;;;9.40;3.03;;;17.80;99.90;;;;;;5034921;28;20033;-63
2023/07/27 12:47:28;;;;;;;7.22;2.17;;;18.00;99.90;;;;;;5034738;28;20052;-63
2023/07/27 12:49:54;;;;;;;3.30;2.13;;;18.20;99.90;;;;;;5052465;28;20451;-63
2023/07/27 12:52:20;;;;;;;8.55;2.60;;;18.30;99.90;;;;;;5051719;28;20128;-63